Archival Weather

Half Moon Bay

Half Moon Bay, California (KHAF)

Report from: Thursday, September 21, 2023 7:55 PM PDT
Current time: Tuesday, February 27, 2024 2:59 AM PST

Current weather – Weather history – Daily summaries
Weather forecast

Present weatherMist
Temperature15.0°C (59.0°F)
Dew point14.0°C (57.2°F)
Winds 7 kts (3.6 m/s, 8.1 mph) South (190°)
Visibility4 mi. (6.4 km)
Clouds Scattered clouds 1,500 ft. (457 m)
Scattered clouds 2,500 ft. (762 m)
Altimeter29.92 in.Hg (1013 mB)
Relative humidity94 %
Density altitude223 ft. (68 m)
Remarks Fully automated report
Automated weather observing station with precipitation discriminator
Flight conditions Marginal Visual Meteorological Conditions
Raw dataKHAF 220255Z AUTO 19007KT 4SM BR SCT015 SCT025 15/14 A2992 RMK AO2
An error has occurred. This application may no longer respond until reloaded. Reload 🗙